sensor_id;sensor_type;location;lat;lon;timestamp;pressure;altitude;pressure_sealevel;temperature;humidity
10462;BME280;5278;42.656;23.374;2023-12-04T00:00:30;95136.59;;;2.04;77.85
10462;BME280;5278;42.656;23.374;2023-12-04T00:02:56;95141.09;;;2.13;77.58
10462;BME280;5278;42.656;23.374;2023-12-04T00:05:23;95140.63;;;2.20;76.86
10462;BME280;5278;42.656;23.374;2023-12-04T00:07:50;95152.16;;;2.25;75.05
10462;BME280;5278;42.656;23.374;2023-12-04T00:10:17;95146.34;;;2.23;76.67
10462;BME280;5278;42.656;23.374;2023-12-04T00:12:43;95149.06;;;2.33;75.98
10462;BME280;5278;42.656;23.374;2023-12-04T00:15:10;95141.03;;;2.37;75.52
10462;BME280;5278;42.656;23.374;2023-12-04T00:17:38;95152.78;;;2.40;74.14
10462;BME280;5278;42.656;23.374;2023-12-04T00:20:06;95151.47;;;2.23;73.81
10462;BME280;5278;42.656;23.374;2023-12-04T00:22:34;95102.69;;;2.01;72.90
10462;BME280;5278;42.656;23.374;2023-12-04T00:25:01;95168.50;;;2.24;73.08
10462;BME280;5278;42.656;23.374;2023-12-04T00:27:28;95159.06;;;2.01;74.17
10462;BME280;5278;42.656;23.374;2023-12-04T00:29:55;95168.66;;;1.86;74.71
10462;BME280;5278;42.656;23.374;2023-12-04T00:32:22;95169.31;;;1.77;74.85
10462;BME280;5278;42.656;23.374;2023-12-04T00:34:50;95164.19;;;1.77;74.65
10462;BME280;5278;42.656;23.374;2023-12-04T00:37:17;95167.72;;;1.87;74.70
10462;BME280;5278;42.656;23.374;2023-12-04T00:39:44;95186.00;;;1.83;72.99
10462;BME280;5278;42.656;23.374;2023-12-04T00:42:10;95179.66;;;1.76;71.99
10462;BME280;5278;42.656;23.374;2023-12-04T00:44:37;95174.53;;;1.76;73.04
10462;BME280;5278;42.656;23.374;2023-12-04T00:47:04;95183.34;;;1.71;72.22
10462;BME280;5278;42.656;23.374;2023-12-04T00:49:31;95185.50;;;1.78;72.50
10462;BME280;5278;42.656;23.374;2023-12-04T00:51:59;95186.91;;;1.82;72.48
10462;BME280;5278;42.656;23.374;2023-12-04T00:54:26;95195.66;;;1.66;73.33
10462;BME280;5278;42.656;23.374;2023-12-04T00:56:52;95187.16;;;1.66;72.93
10462;BME280;5278;42.656;23.374;2023-12-04T00:59:19;95192.44;;;1.76;72.95
10462;BME280;5278;42.656;23.374;2023-12-04T01:01:46;95078.81;;;1.05;73.02
10462;BME280;5278;42.656;23.374;2023-12-04T01:04:13;95193.19;;;1.65;72.62
10462;BME280;5278;42.656;23.374;2023-12-04T01:06:39;95186.66;;;1.61;72.88
10462;BME280;5278;42.656;23.374;2023-12-04T01:09:07;95082.69;;;1.11;72.71
10462;BME280;5278;42.656;23.374;2023-12-04T01:11:34;95190.28;;;1.82;72.50
10462;BME280;5278;42.656;23.374;2023-12-04T01:14:02;95191.22;;;1.81;71.98
10462;BME280;5278;42.656;23.374;2023-12-04T01:16:29;95186.38;;;1.89;71.39
10462;BME280;5278;42.656;23.374;2023-12-04T01:18:56;95195.34;;;1.95;70.67
10462;BME280;5278;42.656;23.374;2023-12-04T01:21:23;95159.03;;;6.37;100.00
10462;BME280;5278;42.656;23.374;2023-12-04T01:23:49;95141.63;;;9.21;100.00
10462;BME280;5278;42.656;23.374;2023-12-04T01:26:18;95150.34;;;8.94;100.00
10462;BME280;5278;42.656;23.374;2023-12-04T01:28:44;95158.56;;;7.73;62.18
10462;BME280;5278;42.656;23.374;2023-12-04T01:31:11;95150.72;;;6.53;53.35
10462;BME280;5278;42.656;23.374;2023-12-04T01:33:38;95160.72;;;5.49;54.44
10462;BME280;5278;42.656;23.374;2023-12-04T01:36:05;95163.78;;;4.61;57.29
10462;BME280;5278;42.656;23.374;2023-12-04T01:38:32;95173.34;;;4.07;59.68
10462;BME280;5278;42.656;23.374;2023-12-04T01:40:59;95182.69;;;3.54;60.85
10462;BME280;5278;42.656;23.374;2023-12-04T01:43:27;95179.91;;;3.23;62.89
10462;BME280;5278;42.656;23.374;2023-12-04T01:45:55;95206.31;;;2.90;64.61
10462;BME280;5278;42.656;23.374;2023-12-04T01:48:22;95192.41;;;2.71;66.28
10462;BME280;5278;42.656;23.374;2023-12-04T01:50:49;95192.13;;;2.51;67.79
10462;BME280;5278;42.656;23.374;2023-12-04T01:53:16;95197.28;;;2.28;69.64
10462;BME280;5278;42.656;23.374;2023-12-04T01:55:43;95192.91;;;2.17;69.35
10462;BME280;5278;42.656;23.374;2023-12-04T01:58:10;95193.16;;;2.14;70.35
10462;BME280;5278;42.656;23.374;2023-12-04T02:00:39;95194.72;;;2.04;70.55
10462;BME280;5278;42.656;23.374;2023-12-04T02:03:06;95199.63;;;1.83;70.92
10462;BME280;5278;42.656;23.374;2023-12-04T02:05:34;95205.56;;;1.71;71.84
10462;BME280;5278;42.656;23.374;2023-12-04T02:08:02;95208.69;;;1.63;72.36
10462;BME280;5278;42.656;23.374;2023-12-04T02:10:30;95202.97;;;1.47;73.47
10462;BME280;5278;42.656;23.374;2023-12-04T02:12:57;95206.44;;;1.46;73.29
10462;BME280;5278;42.656;23.374;2023-12-04T02:15:23;95206.25;;;1.49;73.39
10462;BME280;5278;42.656;23.374;2023-12-04T02:17:52;95215.22;;;1.55;74.18
10462;BME280;5278;42.656;23.374;2023-12-04T02:20:19;95213.63;;;1.54;73.97
10462;BME280;5278;42.656;23.374;2023-12-04T02:22:46;95224.19;;;1.49;73.81
10462;BME280;5278;42.656;23.374;2023-12-04T02:25:15;95219.66;;;1.40;73.51
10462;BME280;5278;42.656;23.374;2023-12-04T02:27:46;95224.00;;;1.14;74.35
10462;BME280;5278;42.656;23.374;2023-12-04T02:30:14;95227.34;;;1.15;74.87
10462;BME280;5278;42.656;23.374;2023-12-04T02:32:45;95231.56;;;1.16;74.21
10462;BME280;5278;42.656;23.374;2023-12-04T02:35:14;95230.03;;;1.13;74.22
10462;BME280;5278;42.656;23.374;2023-12-04T02:37:42;95246.59;;;1.08;75.38
10462;BME280;5278;42.656;23.374;2023-12-04T02:40:11;95244.88;;;1.08;74.71
10462;BME280;5278;42.656;23.374;2023-12-04T02:42:40;95240.56;;;1.09;74.40
10462;BME280;5278;42.656;23.374;2023-12-04T02:45:07;95237.59;;;1.02;73.57
10462;BME280;5278;42.656;23.374;2023-12-04T02:47:34;95149.69;;;0.40;74.42
10462;BME280;5278;42.656;23.374;2023-12-04T02:50:01;95247.53;;;0.94;74.17
10462;BME280;5278;42.656;23.374;2023-12-04T02:52:28;95251.81;;;0.94;74.21
10462;BME280;5278;42.656;23.374;2023-12-04T02:54:55;95250.47;;;1.01;73.84
10462;BME280;5278;42.656;23.374;2023-12-04T02:57:21;95255.09;;;1.08;74.41
10462;BME280;5278;42.656;23.374;2023-12-04T02:59:50;95255.41;;;1.04;73.76
10462;BME280;5278;42.656;23.374;2023-12-04T03:02:16;95263.28;;;1.13;74.70
10462;BME280;5278;42.656;23.374;2023-12-04T03:04:43;95248.94;;;1.11;73.58
10462;BME280;5278;42.656;23.374;2023-12-04T03:07:10;95252.84;;;1.16;74.21
10462;BME280;5278;42.656;23.374;2023-12-04T03:09:37;95254.28;;;1.08;73.57
10462;BME280;5278;42.656;23.374;2023-12-04T03:12:04;95249.34;;;1.05;73.60
10462;BME280;5278;42.656;23.374;2023-12-04T03:14:31;95256.50;;;1.00;73.86
10462;BME280;5278;42.656;23.374;2023-12-04T03:16:59;95251.38;;;1.00;73.79
10462;BME280;5278;42.656;23.374;2023-12-04T03:19:26;95244.44;;;0.89;73.73
10462;BME280;5278;42.656;23.374;2023-12-04T03:21:53;95254.34;;;0.81;74.32
10462;BME280;5278;42.656;23.374;2023-12-04T03:24:19;95261.19;;;0.68;75.27
10462;BME280;5278;42.656;23.374;2023-12-04T03:26:46;95261.38;;;0.65;75.68
10462;BME280;5278;42.656;23.374;2023-12-04T03:29:13;95256.53;;;0.60;76.18
10462;BME280;5278;42.656;23.374;2023-12-04T03:31:40;95272.47;;;0.51;75.69
10462;BME280;5278;42.656;23.374;2023-12-04T03:34:08;95271.88;;;0.60;76.64
10462;BME280;5278;42.656;23.374;2023-12-04T03:36:35;95265.47;;;0.67;75.35
10462;BME280;5278;42.656;23.374;2023-12-04T03:39:01;95268.22;;;0.64;75.09
10462;BME280;5278;42.656;23.374;2023-12-04T03:41:28;95273.22;;;0.66;75.43
10462;BME280;5278;42.656;23.374;2023-12-04T03:43:55;95272.75;;;0.73;75.26
10462;BME280;5278;42.656;23.374;2023-12-04T03:46:22;95271.19;;;0.71;74.62
10462;BME280;5278;42.656;23.374;2023-12-04T03:48:49;95168.13;;;0.06;74.71
10462;BME280;5278;42.656;23.374;2023-12-04T03:51:17;95271.63;;;0.65;74.67
10462;BME280;5278;42.656;23.374;2023-12-04T03:53:43;95264.81;;;0.51;74.10
10462;BME280;5278;42.656;23.374;2023-12-04T03:56:10;95262.91;;;0.55;74.75
10462;BME280;5278;42.656;23.374;2023-12-04T03:58:37;95268.88;;;0.41;74.91
10462;BME280;5278;42.656;23.374;2023-12-04T04:01:05;95273.88;;;0.42;74.91
10462;BME280;5278;42.656;23.374;2023-12-04T04:03:32;95282.22;;;0.32;75.36
10462;BME280;5278;42.656;23.374;2023-12-04T04:05:58;95282.22;;;0.32;75.82
10462;BME280;5278;42.656;23.374;2023-12-04T04:08:27;95282.38;;;0.43;76.29
10462;BME280;5278;42.656;23.374;2023-12-04T04:10:53;95278.63;;;0.49;75.43
10462;BME280;5278;42.656;23.374;2023-12-04T04:13:20;95283.53;;;0.52;75.17
10462;BME280;5278;42.656;23.374;2023-12-04T04:15:47;95279.81;;;0.43;75.91
10462;BME280;5278;42.656;23.374;2023-12-04T04:18:14;95279.63;;;0.46;75.53
10462;BME280;5278;42.656;23.374;2023-12-04T04:20:40;95288.84;;;0.49;75.14
10462;BME280;5278;42.656;23.374;2023-12-04T04:23:07;95287.19;;;0.48;75.47
10462;BME280;5278;42.656;23.374;2023-12-04T04:25:35;95297.34;;;0.35;74.86
10462;BME280;5278;42.656;23.374;2023-12-04T04:28:02;95306.56;;;0.37;75.49
10462;BME280;5278;42.656;23.374;2023-12-04T04:30:29;95299.00;;;0.36;75.48
10462;BME280;5278;42.656;23.374;2023-12-04T04:32:56;95293.47;;;0.29;75.56
10462;BME280;5278;42.656;23.374;2023-12-04T04:35:22;95305.00;;;0.35;75.69
10462;BME280;5278;42.656;23.374;2023-12-04T04:37:50;95293.88;;;0.36;75.14
10462;BME280;5278;42.656;23.374;2023-12-04T04:40:17;95295.91;;;0.31;75.30
10462;BME280;5278;42.656;23.374;2023-12-04T04:42:46;95323.09;;;0.32;75.48
10462;BME280;5278;42.656;23.374;2023-12-04T04:45:13;95314.19;;;0.25;75.36
10462;BME280;5278;42.656;23.374;2023-12-04T04:47:40;95343.09;;;0.25;75.07
10462;BME280;5278;42.656;23.374;2023-12-04T04:50:07;95316.47;;;0.29;75.60
10462;BME280;5278;42.656;23.374;2023-12-04T04:52:34;95121.50;;;-1.05;74.60
10462;BME280;5278;42.656;23.374;2023-12-04T04:55:01;95325.28;;;0.38;73.50
10462;BME280;5278;42.656;23.374;2023-12-04T04:57:28;95328.81;;;0.35;72.87
10462;BME280;5278;42.656;23.374;2023-12-04T04:59:56;95332.75;;;0.41;73.64
10462;BME280;5278;42.656;23.374;2023-12-04T05:02:24;95326.81;;;0.40;73.02
10462;BME280;5278;42.656;23.374;2023-12-04T05:04:51;95285.69;;;0.31;72.33
10462;BME280;5278;42.656;23.374;2023-12-04T05:07:17;95320.94;;;0.53;72.15
10462;BME280;5278;42.656;23.374;2023-12-04T05:09:44;95319.75;;;0.58;71.09
10462;BME280;5278;42.656;23.374;2023-12-04T05:12:11;95319.75;;;0.58;70.60
10462;BME280;5278;42.656;23.374;2023-12-04T05:14:38;95330.56;;;0.62;70.96
10462;BME280;5278;42.656;23.374;2023-12-04T05:17:06;95336.84;;;0.70;71.19
10462;BME280;5278;42.656;23.374;2023-12-04T05:19:33;95333.72;;;0.79;70.67
10462;BME280;5278;42.656;23.374;2023-12-04T05:21:59;95333.81;;;0.78;70.56
10462;BME280;5278;42.656;23.374;2023-12-04T05:24:26;95337.88;;;0.80;70.44
10462;BME280;5278;42.656;23.374;2023-12-04T05:26:53;95341.78;;;0.86;70.80
10462;BME280;5278;42.656;23.374;2023-12-04T05:29:20;95341.31;;;0.94;69.30
10462;BME280;5278;42.656;23.374;2023-12-04T05:31:47;95256.06;;;0.28;69.48
10462;BME280;5278;42.656;23.374;2023-12-04T05:34:15;95335.00;;;0.99;70.19
10462;BME280;5278;42.656;23.374;2023-12-04T05:36:41;95337.03;;;1.07;69.13
10462;BME280;5278;42.656;23.374;2023-12-04T05:39:08;95336.81;;;1.10;69.33
10462;BME280;5278;42.656;23.374;2023-12-04T05:41:35;95338.28;;;1.14;68.94
10462;BME280;5278;42.656;23.374;2023-12-04T05:44:02;95339.72;;;1.18;68.10
10462;BME280;5278;42.656;23.374;2023-12-04T05:46:28;95336.66;;;1.13;67.60
10462;BME280;5278;42.656;23.374;2023-12-04T05:48:54;95346.78;;;1.14;68.75
10462;BME280;5278;42.656;23.374;2023-12-04T05:51:23;95349.09;;;1.05;67.99
10462;BME280;5278;42.656;23.374;2023-12-04T05:53:49;95376.00;;;0.98;70.07
10462;BME280;5278;42.656;23.374;2023-12-04T05:56:16;95353.66;;;0.87;70.19
10462;BME280;5278;42.656;23.374;2023-12-04T05:58:43;95351.03;;;0.89;70.33
10462;BME280;5278;42.656;23.374;2023-12-04T06:01:09;95351.13;;;1.00;70.41
10462;BME280;5278;42.656;23.374;2023-12-04T06:03:36;95352.78;;;1.01;70.69
10462;BME280;5278;42.656;23.374;2023-12-04T06:06:04;95352.69;;;1.15;71.23
10462;BME280;5278;42.656;23.374;2023-12-04T06:08:32;95350.38;;;1.24;69.38
10462;BME280;5278;42.656;23.374;2023-12-04T06:10:59;95363.59;;;1.31;69.18
10462;BME280;5278;42.656;23.374;2023-12-04T06:13:25;95357.03;;;1.27;69.62
10462;BME280;5278;42.656;23.374;2023-12-04T06:15:52;95362.88;;;1.29;68.87
10462;BME280;5278;42.656;23.374;2023-12-04T06:18:19;95366.97;;;1.19;69.23
10462;BME280;5278;42.656;23.374;2023-12-04T06:20:47;95344.63;;;1.08;70.21
10462;BME280;5278;42.656;23.374;2023-12-04T06:23:14;95343.41;;;1.14;69.52
10462;BME280;5278;42.656;23.374;2023-12-04T06:25:43;95365.94;;;1.21;70.22
10462;BME280;5278;42.656;23.374;2023-12-04T06:28:10;95374.84;;;1.28;69.69
10462;BME280;5278;42.656;23.374;2023-12-04T06:30:38;95365.53;;;1.40;69.15
10462;BME280;5278;42.656;23.374;2023-12-04T06:33:06;95363.72;;;1.42;69.48
10462;BME280;5278;42.656;23.374;2023-12-04T06:35:33;95372.91;;;1.45;69.43
10462;BME280;5278;42.656;23.374;2023-12-04T06:38:05;95375.59;;;1.43;69.75
10462;BME280;5278;42.656;23.374;2023-12-04T06:40:33;95326.63;;;1.22;69.02
10462;BME280;5278;42.656;23.374;2023-12-04T06:43:01;95379.88;;;1.55;68.19
10462;BME280;5278;42.656;23.374;2023-12-04T06:45:29;95387.38;;;1.71;68.56
10462;BME280;5278;42.656;23.374;2023-12-04T06:47:59;95381.22;;;1.86;68.90
10462;BME280;5278;42.656;23.374;2023-12-04T06:50:25;95392.28;;;1.99;68.13
10462;BME280;5278;42.656;23.374;2023-12-04T06:52:52;95387.66;;;2.04;67.40
10462;BME280;5278;42.656;23.374;2023-12-04T06:55:19;95396.06;;;2.19;66.50
10462;BME280;5278;42.656;23.374;2023-12-04T06:57:46;95392.78;;;2.17;66.47
10462;BME280;5278;42.656;23.374;2023-12-04T07:00:15;95391.16;;;2.16;66.60
10462;BME280;5278;42.656;23.374;2023-12-04T07:02:42;95399.75;;;2.15;66.19
10462;BME280;5278;42.656;23.374;2023-12-04T07:05:08;95403.31;;;2.25;65.73
10462;BME280;5278;42.656;23.374;2023-12-04T07:07:35;95394.22;;;2.34;65.45
10462;BME280;5278;42.656;23.374;2023-12-04T07:10:02;95405.16;;;2.48;64.55
10462;BME280;5278;42.656;23.374;2023-12-04T07:12:29;95405.75;;;2.39;64.97
10462;BME280;5278;42.656;23.374;2023-12-04T07:14:56;95412.84;;;2.36;65.08
10462;BME280;5278;42.656;23.374;2023-12-04T07:17:24;95415.50;;;2.47;64.80
10462;BME280;5278;42.656;23.374;2023-12-04T07:19:51;95403.69;;;2.57;64.99
10462;BME280;5278;42.656;23.374;2023-12-04T07:22:18;95393.81;;;2.64;64.88
10462;BME280;5278;42.656;23.374;2023-12-04T07:24:44;95409.31;;;2.86;63.57
10462;BME280;5278;42.656;23.374;2023-12-04T07:27:11;95404.75;;;3.02;62.46
10462;BME280;5278;42.656;23.374;2023-12-04T07:29:38;95403.09;;;3.01;63.20
10462;BME280;5278;42.656;23.374;2023-12-04T07:32:06;95400.50;;;3.14;61.29
10462;BME280;5278;42.656;23.374;2023-12-04T07:34:34;95403.56;;;3.19;61.01
10462;BME280;5278;42.656;23.374;2023-12-04T07:37:02;95411.84;;;3.22;59.76
10462;BME280;5278;42.656;23.374;2023-12-04T07:39:29;95418.66;;;3.34;60.01
10462;BME280;5278;42.656;23.374;2023-12-04T07:41:55;95319.06;;;2.81;59.55
10462;BME280;5278;42.656;23.374;2023-12-04T07:44:22;95422.94;;;3.58;58.90
10462;BME280;5278;42.656;23.374;2023-12-04T07:46:49;95416.84;;;3.59;58.81
10462;BME280;5278;42.656;23.374;2023-12-04T07:49:16;95411.50;;;3.62;56.73
10462;BME280;5278;42.656;23.374;2023-12-04T07:51:44;95414.47;;;3.44;56.33
10462;BME280;5278;42.656;23.374;2023-12-04T07:54:11;95408.78;;;3.17;57.37
10462;BME280;5278;42.656;23.374;2023-12-04T07:56:38;95410.31;;;3.20;57.79
10462;BME280;5278;42.656;23.374;2023-12-04T07:59:04;95415.91;;;3.14;57.22
10462;BME280;5278;42.656;23.374;2023-12-04T08:01:31;95421.13;;;3.12;58.02
10462;BME280;5278;42.656;23.374;2023-12-04T08:03:58;95429.63;;;3.36;58.55
10462;BME280;5278;42.656;23.374;2023-12-04T08:06:24;95421.59;;;3.76;56.60
10462;BME280;5278;42.656;23.374;2023-12-04T08:08:53;95423.88;;;4.03;55.05
10462;BME280;5278;42.656;23.374;2023-12-04T08:11:20;95425.38;;;4.05;52.50
10462;BME280;5278;42.656;23.374;2023-12-04T08:13:46;95422.47;;;4.32;52.17
10462;BME280;5278;42.656;23.374;2023-12-04T08:16:14;95435.09;;;4.24;51.94
10462;BME280;5278;42.656;23.374;2023-12-04T08:18:41;95410.88;;;4.04;53.37
10462;BME280;5278;42.656;23.374;2023-12-04T08:21:09;95443.41;;;4.50;53.23
10462;BME280;5278;42.656;23.374;2023-12-04T08:23:35;95417.50;;;4.96;52.18
10462;BME280;5278;42.656;23.374;2023-12-04T08:26:04;95410.91;;;5.46;49.58
10462;BME280;5278;42.656;23.374;2023-12-04T08:28:31;95410.81;;;5.89;47.57
10462;BME280;5278;42.656;23.374;2023-12-04T08:30:57;95406.59;;;6.39;46.75
10462;BME280;5278;42.656;23.374;2023-12-04T08:33:24;95401.13;;;7.31;44.28
10462;BME280;5278;42.656;23.374;2023-12-04T08:35:51;95401.22;;;7.78;41.89
10462;BME280;5278;42.656;23.374;2023-12-04T08:38:18;95408.16;;;7.77;41.68
10462;BME280;5278;42.656;23.374;2023-12-04T08:40:44;95397.56;;;7.81;41.10
10462;BME280;5278;42.656;23.374;2023-12-04T08:43:12;95398.88;;;8.04;40.74
10462;BME280;5278;42.656;23.374;2023-12-04T08:45:39;95393.66;;;8.23;39.70
10462;BME280;5278;42.656;23.374;2023-12-04T08:48:06;95397.19;;;8.22;39.65
10462;BME280;5278;42.656;23.374;2023-12-04T08:50:34;95400.56;;;8.51;39.09
10462;BME280;5278;42.656;23.374;2023-12-04T08:53:00;95401.38;;;8.79;38.25
10462;BME280;5278;42.656;23.374;2023-12-04T08:55:28;95390.78;;;9.18;37.73
10462;BME280;5278;42.656;23.374;2023-12-04T08:57:54;95399.16;;;9.29;37.14
10462;BME280;5278;42.656;23.374;2023-12-04T09:00:22;95383.00;;;9.97;89.57
10462;BME280;5278;42.656;23.374;2023-12-04T09:02:49;95380.25;;;12.31;100.00
10462;BME280;5278;42.656;23.374;2023-12-04T09:05:16;95371.13;;;14.79;82.43
10462;BME280;5278;42.656;23.374;2023-12-04T09:07:43;95368.00;;;16.53;64.73
10462;BME280;5278;42.656;23.374;2023-12-04T09:10:10;95363.84;;;16.38;30.28
10462;BME280;5278;42.656;23.374;2023-12-04T09:12:36;95361.81;;;15.63;29.45
10462;BME280;5278;42.656;23.374;2023-12-04T09:15:04;95355.56;;;14.92;28.17
10462;BME280;5278;42.656;23.374;2023-12-04T09:17:32;95371.63;;;13.93;29.48
10462;BME280;5278;42.656;23.374;2023-12-04T09:19:59;95355.16;;;13.24;30.41
10462;BME280;5278;42.656;23.374;2023-12-04T09:22:26;95356.72;;;13.33;30.15
10462;BME280;5278;42.656;23.374;2023-12-04T09:24:53;95359.16;;;13.34;30.17
10462;BME280;5278;42.656;23.374;2023-12-04T09:27:20;95380.47;;;13.15;30.28
10462;BME280;5278;42.656;23.374;2023-12-04T09:29:47;95358.84;;;13.75;29.58
10462;BME280;5278;42.656;23.374;2023-12-04T09:32:13;95346.72;;;14.34;29.08
10462;BME280;5278;42.656;23.374;2023-12-04T09:34:41;95339.19;;;15.19;27.76
10462;BME280;5278;42.656;23.374;2023-12-04T09:37:08;95330.66;;;15.74;27.26
10462;BME280;5278;42.656;23.374;2023-12-04T09:39:35;95341.50;;;16.14;26.32
10462;BME280;5278;42.656;23.374;2023-12-04T09:42:02;95336.88;;;16.78;25.61
10462;BME280;5278;42.656;23.374;2023-12-04T09:44:30;95344.41;;;16.88;25.16
10462;BME280;5278;42.656;23.374;2023-12-04T09:46:57;95331.25;;;17.55;24.26
10462;BME280;5278;42.656;23.374;2023-12-04T09:49:26;95321.34;;;18.49;23.48
10462;BME280;5278;42.656;23.374;2023-12-04T09:51:57;95326.88;;;19.12;22.95
10462;BME280;5278;42.656;23.374;2023-12-04T09:54:24;95328.41;;;19.26;22.58
10462;BME280;5278;42.656;23.374;2023-12-04T09:56:51;95320.41;;;19.52;22.26
10462;BME280;5278;42.656;23.374;2023-12-04T09:59:22;95315.50;;;20.12;21.51
10462;BME280;5278;42.656;23.374;2023-12-04T10:01:51;95319.81;;;20.31;21.11
10462;BME280;5278;42.656;23.374;2023-12-04T10:04:18;95312.13;;;20.23;21.44
10462;BME280;5278;42.656;23.374;2023-12-04T10:06:48;95297.63;;;20.57;21.12
10462;BME280;5278;42.656;23.374;2023-12-04T10:09:17;95303.84;;;20.19;21.59
10462;BME280;5278;42.656;23.374;2023-12-04T10:11:44;95295.63;;;20.28;21.39
10462;BME280;5278;42.656;23.374;2023-12-04T10:14:15;95301.72;;;20.53;21.24
10462;BME280;5278;42.656;23.374;2023-12-04T10:16:43;95303.91;;;20.38;21.16
10462;BME280;5278;42.656;23.374;2023-12-04T10:19:18;95295.72;;;20.46;20.96
10462;BME280;5278;42.656;23.374;2023-12-04T10:21:46;95265.25;;;20.00;20.81
10462;BME280;5278;42.656;23.374;2023-12-04T10:24:30;95297.69;;;20.50;21.06
10462;BME280;5278;42.656;23.374;2023-12-04T10:26:59;95299.34;;;20.02;21.47
10462;BME280;5278;42.656;23.374;2023-12-04T10:29:28;95296.19;;;19.24;22.25
10462;BME280;5278;42.656;23.374;2023-12-04T10:31:55;95294.81;;;19.53;22.00
10462;BME280;5278;42.656;23.374;2023-12-04T10:34:25;95291.44;;;19.46;22.00
10462;BME280;5278;42.656;23.374;2023-12-04T10:36:52;95282.63;;;19.20;22.67
10462;BME280;5278;42.656;23.374;2023-12-04T10:39:20;95278.16;;;19.21;21.94
10462;BME280;5278;42.656;23.374;2023-12-04T10:41:59;95280.72;;;19.03;22.04
10462;BME280;5278;42.656;23.374;2023-12-04T10:44:27;95279.53;;;18.92;22.36
10462;BME280;5278;42.656;23.374;2023-12-04T10:46:55;95273.31;;;18.73;22.64
10462;BME280;5278;42.656;23.374;2023-12-04T10:49:26;95275.03;;;19.37;22.02
10462;BME280;5278;42.656;23.374;2023-12-04T10:51:55;95279.16;;;19.26;22.03
10462;BME280;5278;42.656;23.374;2023-12-04T10:54:22;95278.06;;;19.41;21.99
10462;BME280;5278;42.656;23.374;2023-12-04T10:56:51;95277.66;;;19.06;22.25
10462;BME280;5278;42.656;23.374;2023-12-04T10:59:27;95267.34;;;18.98;22.55
10462;BME280;5278;42.656;23.374;2023-12-04T11:02:00;95282.50;;;18.44;22.74
10462;BME280;5278;42.656;23.374;2023-12-04T11:04:31;95283.78;;;18.16;23.04
10462;BME280;5278;42.656;23.374;2023-12-04T11:06:59;95164.50;;;17.64;23.14
10462;BME280;5278;42.656;23.374;2023-12-04T11:09:29;95279.66;;;18.59;22.70
10462;BME280;5278;42.656;23.374;2023-12-04T11:12:03;95268.13;;;18.54;22.49
10462;BME280;5278;42.656;23.374;2023-12-04T11:14:34;95266.50;;;18.39;22.96
10462;BME280;5278;42.656;23.374;2023-12-04T11:17:08;95266.75;;;18.31;23.00
10462;BME280;5278;42.656;23.374;2023-12-04T11:19:40;95266.75;;;18.25;23.44
10462;BME280;5278;42.656;23.374;2023-12-04T11:22:11;95250.16;;;18.31;23.58
10462;BME280;5278;42.656;23.374;2023-12-04T11:24:39;95251.81;;;18.05;23.78
10462;BME280;5278;42.656;23.374;2023-12-04T11:27:07;95256.47;;;17.84;23.73
10462;BME280;5278;42.656;23.374;2023-12-04T11:29:35;95232.03;;;17.63;24.02
10462;BME280;5278;42.656;23.374;2023-12-04T11:32:05;95165.72;;;17.22;24.21
10462;BME280;5278;42.656;23.374;2023-12-04T11:34:32;95241.34;;;17.73;24.02
10462;BME280;5278;42.656;23.374;2023-12-04T11:36:59;95242.16;;;17.73;23.64
10462;BME280;5278;42.656;23.374;2023-12-04T11:39:28;95242.13;;;17.60;23.86
10462;BME280;5278;42.656;23.374;2023-12-04T11:41:55;95236.66;;;17.55;23.80
10462;BME280;5278;42.656;23.374;2023-12-04T11:44:26;95230.59;;;17.48;24.13
10462;BME280;5278;42.656;23.374;2023-12-04T11:46:57;95226.31;;;17.20;24.33
10462;BME280;5278;42.656;23.374;2023-12-04T11:49:27;95215.56;;;16.96;24.89
10462;BME280;5278;42.656;23.374;2023-12-04T11:51:55;95222.22;;;16.92;24.80
10462;BME280;5278;42.656;23.374;2023-12-04T11:54:22;95223.59;;;16.81;24.91
10462;BME280;5278;42.656;23.374;2023-12-04T11:59:47;95219.03;;;16.55;24.80
10462;BME280;5278;42.656;23.374;2023-12-04T12:02:15;95221.75;;;16.27;25.02
10462;BME280;5278;42.656;23.374;2023-12-04T12:04:42;95219.16;;;15.93;25.49
10462;BME280;5278;42.656;23.374;2023-12-04T12:07:10;95216.06;;;15.55;25.83
10462;BME280;5278;42.656;23.374;2023-12-04T12:09:38;95216.19;;;15.47;26.23
10462;BME280;5278;42.656;23.374;2023-12-04T12:12:06;95213.41;;;15.27;26.43
10462;BME280;5278;42.656;23.374;2023-12-04T12:14:33;95206.78;;;15.10;26.50
10462;BME280;5278;42.656;23.374;2023-12-04T12:17:01;95214.09;;;14.93;26.87
10462;BME280;5278;42.656;23.374;2023-12-04T12:19:28;95200.56;;;14.69;27.26
10462;BME280;5278;42.656;23.374;2023-12-04T12:21:54;95207.88;;;14.58;27.11
10462;BME280;5278;42.656;23.374;2023-12-04T12:24:23;95201.75;;;14.51;27.39
10462;BME280;5278;42.656;23.374;2023-12-04T12:26:50;95201.91;;;14.14;27.88
10462;BME280;5278;42.656;23.374;2023-12-04T12:29:17;95203.50;;;14.00;28.29
10462;BME280;5278;42.656;23.374;2023-12-04T12:31:44;95198.91;;;13.88;28.70
10462;BME280;5278;42.656;23.374;2023-12-04T12:34:13;95187.22;;;13.54;29.36
10462;BME280;5278;42.656;23.374;2023-12-04T12:36:40;95191.91;;;13.21;29.95
10462;BME280;5278;42.656;23.374;2023-12-04T12:39:07;95189.34;;;12.90;30.11
10462;BME280;5278;42.656;23.374;2023-12-04T12:41:34;95192.38;;;12.79;30.84
10462;BME280;5278;42.656;23.374;2023-12-04T12:44:01;95188.53;;;12.67;32.03
10462;BME280;5278;42.656;23.374;2023-12-04T12:46:28;95186.53;;;12.46;31.76
10462;BME280;5278;42.656;23.374;2023-12-04T12:48:56;95185.91;;;12.14;32.52
10462;BME280;5278;42.656;23.374;2023-12-04T12:51:26;95190.34;;;11.97;32.74
10462;BME280;5278;42.656;23.374;2023-12-04T12:53:52;95169.19;;;11.45;33.63
10462;BME280;5278;42.656;23.374;2023-12-04T12:56:19;95187.75;;;11.34;34.05
10462;BME280;5278;42.656;23.374;2023-12-04T12:58:47;95184.00;;;11.12;35.07
10462;BME280;5278;42.656;23.374;2023-12-04T13:01:14;95179.63;;;10.64;36.00
10462;BME280;5278;42.656;23.374;2023-12-04T13:03:40;95186.28;;;10.00;37.33
10462;BME280;5278;42.656;23.374;2023-12-04T13:06:11;95183.47;;;9.85;37.58
10462;BME280;5278;42.656;23.374;2023-12-04T13:08:39;95182.56;;;9.69;37.95
10462;BME280;5278;42.656;23.374;2023-12-04T13:11:06;95180.91;;;9.60;39.08